Time;durP1;ratioP1;P1;durP2;ratioP2;P2;SDS_P1;SDS_P2;PMS_P1;PMS_P2;Temp;Humidity;BMP_temperature;BMP_pressure;BME280_temperature;BME280_humidity;BME280_pressure;Samples;Min_cycle;Max_cycle;Signal;HPM_P1;HPM_P2
2023/08/07 00:00:22;;;;;;;5.65;2.10;;;15.20;99.90;;;;;;5080641;28;20051;-59
2023/08/07 00:02:48;;;;;;;7.97;2.20;;;15.20;99.90;;;;;;5081763;28;20037;-59
2023/08/07 00:05:14;;;;;;;5.65;1.85;;;15.10;99.90;;;;;;5063535;28;20053;-59
2023/08/07 00:07:40;;;;;;;7.97;2.00;;;15.00;99.90;;;;;;5080709;28;20111;-59
2023/08/07 00:10:06;;;;;;;7.72;1.85;;;15.00;99.90;;;;;;5064135;28;20083;-59
2023/08/07 00:12:32;;;;;;;6.10;2.28;;;14.90;99.90;;;;;;5079952;28;20044;-59
2023/08/07 00:14:58;;;;;;;7.03;1.88;;;14.90;99.90;;;;;;5082091;28;20052;-59
2023/08/07 00:17:23;;;;;;;7.32;2.03;;;14.80;99.90;;;;;;5080084;28;20078;-59
2023/08/07 00:19:49;;;;;;;7.80;2.33;;;14.70;99.90;;;;;;5081465;28;20120;-58
2023/08/07 00:22:15;;;;;;;6.82;2.70;;;14.70;99.90;;;;;;5080796;28;20071;-56
2023/08/07 00:24:40;;;;;;;6.88;2.78;;;14.70;99.90;;;;;;5080768;28;20036;-58
2023/08/07 00:27:09;;;;;;;6.15;2.25;;;14.70;99.90;;;;;;5081996;28;20444;-58
2023/08/07 00:29:35;;;;;;;5.90;2.58;;;14.60;99.90;;;;;;5079546;28;20052;-59
2023/08/07 00:32:01;;;;;;;8.02;3.08;;;14.60;99.90;;;;;;5081521;28;20048;-58
2023/08/07 00:34:26;;;;;;;6.00;2.50;;;14.50;99.90;;;;;;5045132;28;20070;-59
2023/08/07 00:36:52;;;;;;;6.47;2.38;;;14.50;99.90;;;;;;5081480;28;20040;-58
2023/08/07 00:39:19;;;;;;;6.50;2.45;;;14.50;99.90;;;;;;5080273;28;20052;-59
2023/08/07 00:41:44;;;;;;;7.03;2.67;;;14.50;99.90;;;;;;5080458;28;20056;-59
2023/08/07 00:44:10;;;;;;;8.75;2.53;;;14.50;99.90;;;;;;5081319;28;20048;-59
2023/08/07 00:46:38;;;;;;;7.90;2.70;;;14.50;99.90;;;;;;5079246;28;20044;-59
2023/08/07 00:49:05;;;;;;;7.45;2.80;;;14.40;99.90;;;;;;5081304;28;20044;-59
2023/08/07 00:51:31;;;;;;;8.85;2.67;;;14.40;99.90;;;;;;5079204;28;20051;-59
2023/08/07 00:53:58;;;;;;;6.45;2.70;;;14.30;99.90;;;;;;5080861;28;20045;-59
2023/08/07 00:56:24;;;;;;;5.80;2.50;;;14.40;99.90;;;;;;5086895;28;20072;-59
2023/08/07 00:58:50;;;;;;;9.20;3.10;;;14.30;99.90;;;;;;5100851;28;20055;-58
2023/08/07 01:01:17;;;;;;;6.85;3.05;;;14.30;99.90;;;;;;5101401;28;20135;-58
2023/08/07 01:03:42;;;;;;;6.80;2.70;;;14.30;99.90;;;;;;5099358;28;20124;-58
2023/08/07 01:06:08;;;;;;;9.10;2.85;;;14.20;99.90;;;;;;5101619;28;20044;-59
2023/08/07 01:08:34;;;;;;;6.22;2.58;;;14.30;99.90;;;;;;5099045;28;20036;-59
2023/08/07 01:11:18;;;;;;;8.68;2.95;;;14.40;99.90;;;;;;5101030;28;20094;-59
2023/08/07 01:14:11;;;;;;;8.90;2.97;;;14.40;99.90;;;;;;5099939;28;20044;-58
2023/08/07 01:16:45;;;;;;;7.78;3.13;;;14.30;99.90;;;;;;5099099;28;20431;-59
2023/08/07 01:19:25;;;;;;;7.85;2.60;;;14.30;99.90;;;;;;5101092;28;20094;-59
2023/08/07 01:22:13;;;;;;;10.55;2.80;;;14.20;99.90;;;;;;5099309;28;20060;-59
2023/08/07 01:24:44;;;;;;;7.35;2.70;;;14.30;99.90;;;;;;5099743;28;20048;-59
2023/08/07 01:27:18;;;;;;;11.38;3.10;;;14.30;99.90;;;;;;5101351;28;20344;-58
2023/08/07 01:30:01;;;;;;;6.20;2.45;;;14.20;99.90;;;;;;5098467;28;20040;-59
2023/08/07 01:32:42;;;;;;;7.70;2.95;;;14.20;99.90;;;;;;5100707;28;20040;-58
2023/08/07 01:35:11;;;;;;;9.77;3.50;;;14.20;99.90;;;;;;5099436;28;20047;-59
2023/08/07 01:37:40;;;;;;;10.70;3.53;;;14.10;99.90;;;;;;5099456;28;20067;-59
2023/08/07 01:40:08;;;;;;;7.70;3.60;;;14.10;99.90;;;;;;5101041;28;20043;-59
2023/08/07 01:42:35;;;;;;;6.85;3.35;;;14.10;99.90;;;;;;5098228;28;20055;-59
2023/08/07 01:45:00;;;;;;;10.60;3.70;;;14.10;99.90;;;;;;5100723;28;20544;-59
2023/08/07 01:47:26;;;;;;;8.10;3.75;;;14.00;99.90;;;;;;5098633;28;20040;-59
2023/08/07 01:49:52;;;;;;;11.30;3.22;;;14.00;99.90;;;;;;5100008;28;20106;-59
2023/08/07 01:52:18;;;;;;;8.95;3.58;;;14.00;99.90;;;;;;5099391;28;20044;-58
2023/08/07 01:54:43;;;;;;;9.82;3.30;;;14.00;99.90;;;;;;5099352;28;20565;-58
2023/08/07 01:57:09;;;;;;;9.57;3.65;;;14.00;99.90;;;;;;5086818;28;20607;-57
2023/08/07 01:59:34;;;;;;;8.77;4.13;;;14.00;99.90;;;;;;5077647;28;20061;-58
2023/08/07 02:02:00;;;;;;;10.85;3.08;;;13.90;99.90;;;;;;5080282;28;20223;-59
2023/08/07 02:04:26;;;;;;;10.88;3.03;;;13.80;99.90;;;;;;5077858;28;20086;-58
2023/08/07 02:06:51;;;;;;;8.85;2.83;;;13.90;99.90;;;;;;5079222;28;20044;-58
2023/08/07 02:09:17;;;;;;;11.20;2.90;;;13.90;99.90;;;;;;5078314;28;20479;-58
2023/08/07 02:11:44;;;;;;;11.02;3.17;;;13.90;99.90;;;;;;5079114;28;20468;-60
2023/08/07 02:14:09;;;;;;;11.98;3.03;;;14.00;99.90;;;;;;5061769;28;20099;-58
2023/08/07 02:16:36;;;;;;;14.55;3.00;;;13.80;99.90;;;;;;5077858;28;20045;-58
2023/08/07 02:19:01;;;;;;;9.68;2.80;;;13.80;99.90;;;;;;5079460;28;20045;-58
2023/08/07 02:21:27;;;;;;;11.65;4.00;;;13.90;99.90;;;;;;5077234;28;20716;-59
2023/08/07 02:23:53;;;;;;;9.98;2.88;;;13.90;99.90;;;;;;5079702;28;20048;-59
2023/08/07 02:26:18;;;;;;;13.02;4.28;;;13.90;99.90;;;;;;5077759;28;20068;-58
2023/08/07 02:28:44;;;;;;;12.52;2.63;;;14.00;99.90;;;;;;5078904;28;20037;-58
2023/08/07 02:31:09;;;;;;;9.35;3.25;;;14.00;99.90;;;;;;5078984;28;20100;-57
2023/08/07 02:33:35;;;;;;;12.52;2.95;;;14.00;99.90;;;;;;5077624;28;20056;-59
2023/08/07 02:36:01;;;;;;;12.73;3.55;;;14.10;99.90;;;;;;5079250;28;20036;-59
2023/08/07 02:38:26;;;;;;;10.50;3.45;;;14.20;99.90;;;;;;5077387;28;20029;-63
2023/08/07 02:40:52;;;;;;;10.70;3.47;;;14.00;99.90;;;;;;5078857;28;20059;-64
2023/08/07 02:43:18;;;;;;;13.80;3.53;;;14.20;99.90;;;;;;5055787;28;20903;-64
2023/08/07 02:45:43;;;;;;;8.48;3.00;;;14.00;99.90;;;;;;5058803;28;20055;-65
2023/08/07 02:48:09;;;;;;;14.48;3.63;;;14.20;99.90;;;;;;5058328;28;20492;-64
2023/08/07 02:50:35;;;;;;;15.38;4.03;;;14.00;99.90;;;;;;5057609;28;20842;-62
2023/08/07 02:53:02;;;;;;;9.77;3.63;;;14.10;99.90;;;;;;5059260;28;20037;-62
2023/08/07 02:55:28;;;;;;;10.00;3.40;;;14.20;99.90;;;;;;5056966;28;20041;-62
2023/08/07 02:57:53;;;;;;;12.48;4.03;;;14.30;99.90;;;;;;5078114;28;20083;-59
2023/08/07 03:00:19;;;;;;;9.57;2.80;;;14.30;99.90;;;;;;5077279;28;20044;-61
2023/08/07 03:02:45;;;;;;;9.70;2.80;;;14.40;99.90;;;;;;5078644;28;20447;-60
2023/08/07 03:05:11;;;;;;;9.60;2.35;;;14.40;99.90;;;;;;5077835;28;20436;-60
2023/08/07 03:07:37;;;;;;;6.90;2.25;;;14.60;99.90;;;;;;5077751;28;20420;-60
2023/08/07 03:10:03;;;;;;;8.60;2.80;;;14.70;99.90;;;;;;5078841;28;20393;-60
2023/08/07 03:12:29;;;;;;;12.23;2.78;;;14.50;99.90;;;;;;5075365;28;20595;-59
2023/08/07 03:14:55;;;;;;;9.05;2.03;;;14.50;99.90;;;;;;5078708;28;20049;-60
2023/08/07 03:17:21;;;;;;;7.60;1.80;;;14.70;99.90;;;;;;5076255;28;20049;-59
2023/08/07 03:19:46;;;;;;;7.93;2.28;;;14.60;99.90;;;;;;5078191;28;20439;-68
2023/08/07 03:22:12;;;;;;;10.57;1.80;;;14.60;99.90;;;;;;5077689;28;20470;-71
2023/08/07 03:24:38;;;;;;;7.00;2.15;;;14.70;99.90;;;;;;5077381;28;20111;-67
2023/08/07 03:27:04;;;;;;;15.00;2.53;;;14.70;99.90;;;;;;5078498;28;20045;-64
2023/08/07 03:29:30;;;;;;;11.07;2.50;;;14.80;99.90;;;;;;5075647;28;20048;-62
2023/08/07 03:31:56;;;;;;;9.75;3.03;;;14.80;99.90;;;;;;5078530;28;20066;-61
2023/08/07 03:34:22;;;;;;;13.45;3.10;;;14.70;99.90;;;;;;5076878;28;20040;-61
2023/08/07 03:36:47;;;;;;;8.73;2.58;;;14.80;99.90;;;;;;5078608;28;20048;-62
2023/08/07 03:39:13;;;;;;;13.82;3.03;;;14.90;99.90;;;;;;5077700;28;20047;-63
2023/08/07 03:41:39;;;;;;;12.30;3.17;;;14.90;99.90;;;;;;5081393;28;20048;-63
2023/08/07 03:44:05;;;;;;;12.38;3.85;;;14.80;99.90;;;;;;5098997;28;20059;-62
2023/08/07 03:46:31;;;;;;;15.30;3.80;;;14.80;99.90;;;;;;5096591;28;20097;-61
2023/08/07 03:48:56;;;;;;;10.45;3.13;;;14.70;99.90;;;;;;5098576;28;20048;-61
2023/08/07 03:51:22;;;;;;;10.57;3.20;;;14.80;99.90;;;;;;5078368;28;20380;-61
2023/08/07 03:53:48;;;;;;;9.60;3.25;;;14.60;99.90;;;;;;5080393;28;20047;-61
2023/08/07 03:56:14;;;;;;;15.48;4.00;;;14.50;99.90;;;;;;5091146;28;20036;-61
2023/08/07 03:58:40;;;;;;;18.60;4.00;;;14.50;99.90;;;;;;5077681;28;20048;-61
2023/08/07 04:01:05;;;;;;;16.30;3.75;;;14.60;99.90;;;;;;5060155;28;20036;-60
2023/08/07 04:03:31;;;;;;;14.00;4.63;;;14.70;99.90;;;;;;5058478;28;20045;-60
2023/08/07 04:05:57;;;;;;;14.93;3.78;;;14.80;99.90;;;;;;5078740;28;20426;-60
2023/08/07 04:08:23;;;;;;;11.75;3.55;;;14.70;99.90;;;;;;5076141;28;20549;-60
2023/08/07 04:11:02;;;;;;;15.52;4.07;;;14.60;99.90;;;;;;5077930;28;20032;-61
2023/08/07 04:13:28;;;;;;;12.90;4.22;;;14.60;99.90;;;;;;5076755;28;20100;-60
2023/08/07 04:15:54;;;;;;;14.15;3.40;;;14.60;99.90;;;;;;5077378;28;20064;-60
2023/08/07 04:18:20;;;;;;;13.90;3.65;;;14.50;99.90;;;;;;5077965;28;20059;-60
2023/08/07 04:21:04;;;;;;;16.10;3.50;;;14.50;99.90;;;;;;5076142;28;20043;-60
2023/08/07 04:23:31;;;;;;;13.52;3.05;;;14.50;99.90;;;;;;5078168;28;20079;-60
2023/08/07 04:25:57;;;;;;;14.85;3.60;;;14.50;99.90;;;;;;5075898;28;20055;-60
2023/08/07 04:28:23;;;;;;;15.20;3.67;;;14.60;99.90;;;;;;5077778;28;20036;-60
2023/08/07 04:30:51;;;;;;;15.93;3.40;;;14.60;99.90;;;;;;5080996;28;20504;-60
2023/08/07 04:33:17;;;;;;;14.68;3.25;;;14.60;99.90;;;;;;5080113;28;20044;-61
2023/08/07 04:35:42;;;;;;;13.57;4.10;;;14.50;99.90;;;;;;5081842;28;20056;-68
2023/08/07 04:38:08;;;;;;;10.98;3.30;;;14.30;99.90;;;;;;5061524;28;20044;-68
2023/08/07 04:40:34;;;;;;;13.25;3.40;;;14.10;99.90;;;;;;5081973;28;20040;-72
2023/08/07 04:42:59;;;;;;;18.52;4.28;;;14.30;99.90;;;;;;5079322;28;20606;-69
2023/08/07 04:45:25;;;;;;;13.65;3.58;;;13.90;99.90;;;;;;5081484;28;20044;-69
2023/08/07 04:47:51;;;;;;;14.95;3.50;;;14.20;99.90;;;;;;5079569;28;20107;-65
2023/08/07 04:50:17;;;;;;;14.23;3.58;;;14.10;99.90;;;;;;5045396;28;20043;-64
2023/08/07 04:52:43;;;;;;;15.43;3.70;;;13.90;99.90;;;;;;5081453;28;20071;-63
2023/08/07 04:55:08;;;;;;;11.85;3.50;;;14.10;99.90;;;;;;5079490;28;20427;-63
2023/08/07 04:57:34;;;;;;;16.50;2.90;;;13.90;99.90;;;;;;5098432;28;20048;-63
2023/08/07 05:00:00;;;;;;;12.43;3.22;;;13.90;99.90;;;;;;5099496;28;20067;-62
2023/08/07 05:02:25;;;;;;;11.65;3.38;;;14.10;99.90;;;;;;5101176;28;20044;-62
2023/08/07 05:04:51;;;;;;;14.30;3.80;;;14.10;99.90;;;;;;5099780;28;20040;-62
2023/08/07 05:07:17;;;;;;;15.50;3.53;;;13.90;99.90;;;;;;5100632;28;20079;-62
2023/08/07 05:09:42;;;;;;;17.10;4.35;;;14.10;99.90;;;;;;5101140;28;20043;-60
2023/08/07 05:12:08;;;;;;;15.77;3.40;;;14.10;99.90;;;;;;5099365;28;20069;-61
2023/08/07 05:14:34;;;;;;;21.42;3.95;;;13.90;99.90;;;;;;5101868;28;20036;-61
2023/08/07 05:16:59;;;;;;;14.13;3.72;;;13.90;99.90;;;;;;5098965;28;20432;-61
2023/08/07 05:19:25;;;;;;;14.10;3.92;;;14.00;99.90;;;;;;5100815;28;20453;-60
2023/08/07 05:21:51;;;;;;;15.43;3.65;;;14.00;99.90;;;;;;5099304;28;20506;-59
2023/08/07 05:24:18;;;;;;;13.95;3.90;;;14.10;99.90;;;;;;5100593;28;20044;-60
2023/08/07 05:26:43;;;;;;;15.60;3.72;;;14.30;99.90;;;;;;5100198;28;20040;-59
2023/08/07 05:29:09;;;;;;;13.35;3.90;;;14.40;99.90;;;;;;5099349;28;20051;-60
2023/08/07 05:31:36;;;;;;;15.43;3.83;;;14.60;99.90;;;;;;5101204;28;20044;-60
2023/08/07 05:34:01;;;;;;;14.10;3.13;;;14.70;99.90;;;;;;5098621;28;20047;-60
2023/08/07 05:36:28;;;;;;;13.15;3.83;;;14.90;99.90;;;;;;5101000;28;20039;-66
2023/08/07 05:38:53;;;;;;;11.98;3.90;;;14.90;99.90;;;;;;5098617;28;20085;-60
2023/08/07 05:41:19;;;;;;;11.45;3.50;;;14.80;99.90;;;;;;5099500;28;20070;-62
2023/08/07 05:43:45;;;;;;;17.55;5.18;;;14.70;99.90;;;;;;5099521;28;20052;-61
2023/08/07 05:46:11;;;;;;;11.50;2.72;;;14.60;99.90;;;;;;5099204;28;20097;-61
2023/08/07 05:48:37;;;;;;;13.50;3.13;;;14.50;99.90;;;;;;5100206;28;20047;-61
2023/08/07 05:51:03;;;;;;;13.98;3.30;;;14.60;99.90;;;;;;5098296;28;20483;-60
2023/08/07 05:53:28;;;;;;;13.02;3.45;;;14.90;99.90;;;;;;5100365;28;20075;-60
2023/08/07 05:55:55;;;;;;;17.10;4.57;;;14.90;99.90;;;;;;5095568;28;20028;-60
2023/08/07 05:58:21;;;;;;;13.02;3.53;;;14.90;99.90;;;;;;5079992;28;20211;-61
2023/08/07 06:00:46;;;;;;;13.55;3.00;;;14.90;99.90;;;;;;5079039;28;20140;-60
2023/08/07 06:03:12;;;;;;;11.43;2.85;;;14.90;99.90;;;;;;5078661;28;20040;-61
2023/08/07 06:05:38;;;;;;;12.27;2.80;;;15.00;99.90;;;;;;5080195;28;20048;-61
2023/08/07 06:08:04;;;;;;;12.07;3.03;;;15.10;99.90;;;;;;5078076;28;20040;-61
2023/08/07 06:10:30;;;;;;;10.98;2.85;;;15.10;99.90;;;;;;5079893;28;20036;-61
2023/08/07 06:12:55;;;;;;;11.88;2.90;;;15.10;99.90;;;;;;5077945;28;20377;-61
2023/08/07 06:15:21;;;;;;;15.02;2.80;;;15.10;99.90;;;;;;5079520;28;20048;-61
2023/08/07 06:17:47;;;;;;;12.13;2.60;;;15.00;99.90;;;;;;5077971;28;20123;-61
2023/08/07 06:20:14;;;;;;;14.25;2.72;;;15.10;99.90;;;;;;5078837;28;20576;-61
2023/08/07 06:22:40;;;;;;;12.23;2.72;;;15.10;99.90;;;;;;5079338;28;20071;-61
2023/08/07 06:25:06;;;;;;;12.10;2.60;;;15.30;99.90;;;;;;5077638;28;20029;-61
2023/08/07 06:27:32;;;;;;;13.02;2.80;;;15.30;99.90;;;;;;5079572;28;20032;-61
2023/08/07 06:29:59;;;;;;;12.30;2.92;;;15.10;99.90;;;;;;5077545;28;20098;-61
2023/08/07 06:32:26;;;;;;;7.90;2.55;;;14.90;99.90;;;;;;5079168;28;20033;-63
2023/08/07 06:34:52;;;;;;;9.68;2.63;;;14.50;99.90;;;;;;5077972;28;20097;-63
2023/08/07 06:37:18;;;;;;;11.82;2.55;;;14.30;99.90;;;;;;5078597;28;20095;-62
2023/08/07 06:39:46;;;;;;;11.68;2.63;;;14.40;99.90;;;;;;5079090;28;20070;-62
2023/08/07 06:42:12;;;;;;;11.98;2.65;;;14.40;99.90;;;;;;5077407;28;20052;-62
2023/08/07 06:44:37;;;;;;;13.82;3.05;;;14.40;99.90;;;;;;5079281;28;20124;-62
2023/08/07 06:47:03;;;;;;;11.68;2.78;;;14.50;99.90;;;;;;5077231;28;20036;-62
2023/08/07 06:49:31;;;;;;;11.02;2.92;;;14.60;99.90;;;;;;5078457;28;20070;-61
2023/08/07 06:51:57;;;;;;;12.15;3.03;;;14.60;99.90;;;;;;5077575;28;20055;-64
2023/08/07 06:54:23;;;;;;;13.90;3.08;;;14.60;99.90;;;;;;5077968;28;20044;-70
2023/08/07 06:56:49;;;;;;;11.82;3.28;;;14.10;99.90;;;;;;5071129;28;20052;-66
2023/08/07 06:59:14;;;;;;;15.70;3.38;;;14.00;99.90;;;;;;5097605;28;20072;-68
2023/08/07 07:01:40;;;;;;;10.50;2.63;;;13.90;99.90;;;;;;5099479;28;20044;-64
2023/08/07 07:04:05;;;;;;;12.65;3.15;;;13.90;99.90;;;;;;5097106;28;20054;-63
2023/08/07 07:06:31;;;;;;;13.45;3.42;;;13.80;99.90;;;;;;5099104;28;20043;-62
2023/08/07 07:08:57;;;;;;;11.45;3.47;;;13.80;99.90;;;;;;5097539;28;20051;-62
2023/08/07 07:11:24;;;;;;;18.63;3.15;;;13.90;99.90;;;;;;5098390;28;20044;-62
2023/08/07 07:13:50;;;;;;;10.93;2.85;;;14.00;99.90;;;;;;5098965;28;20062;-61
2023/08/07 07:16:18;;;;;;;9.70;2.70;;;14.00;99.90;;;;;;5096852;28;20036;-61
2023/08/07 07:18:43;;;;;;;10.95;3.25;;;13.60;99.90;;;;;;5098910;28;20032;-62
2023/08/07 07:21:09;;;;;;;10.90;3.03;;;13.50;99.90;;;;;;5096834;28;20050;-63
2023/08/07 07:23:35;;;;;;;14.75;3.40;;;13.60;99.90;;;;;;5098856;28;20408;-62
2023/08/07 07:26:00;;;;;;;11.52;3.15;;;13.60;99.90;;;;;;5097366;28;20190;-61
2023/08/07 07:28:27;;;;;;;15.20;3.13;;;13.60;99.90;;;;;;5080256;28;20040;-62
2023/08/07 07:30:52;;;;;;;13.23;3.00;;;13.70;99.90;;;;;;5097949;28;20515;-62
2023/08/07 07:33:18;;;;;;;12.18;3.17;;;13.90;99.90;;;;;;5097209;28;20051;-62
2023/08/07 07:35:44;;;;;;;11.43;3.47;;;14.20;99.90;;;;;;5099227;28;20438;-62
2023/08/07 07:38:10;;;;;;;13.50;3.78;;;14.40;99.90;;;;;;5096426;28;20089;-63
2023/08/07 07:40:36;;;;;;;10.88;3.05;;;14.70;99.90;;;;;;5080240;28;20055;-61
2023/08/07 07:43:02;;;;;;;12.27;3.90;;;14.80;99.90;;;;;;5096745;28;20051;-60
2023/08/07 07:45:28;;;;;;;13.75;3.47;;;14.70;99.90;;;;;;5098033;28;20048;-62
2023/08/07 07:47:54;;;;;;;13.15;3.53;;;14.70;99.90;;;;;;5097652;28;20036;-61
2023/08/07 07:50:19;;;;;;;14.23;3.45;;;13.70;99.90;;;;;;5096931;28;20036;-62
2023/08/07 07:52:45;;;;;;;14.32;3.60;;;13.30;99.90;;;;;;5080723;28;20083;-61
2023/08/07 07:55:12;;;;;;;12.90;3.28;;;13.10;99.90;;;;;;5096508;28;20094;-63
2023/08/07 07:57:37;;;;;;;12.35;2.72;;;13.10;99.90;;;;;;5081525;28;20053;-63
2023/08/07 08:00:07;;;;;;;11.00;3.10;;;13.20;99.90;;;;;;5076316;28;20045;-61
2023/08/07 08:02:33;;;;;;;11.00;3.03;;;13.40;99.90;;;;;;5077992;28;20045;-62
2023/08/07 08:04:59;;;;;;;14.40;3.55;;;13.50;99.90;;;;;;5080294;28;20046;-62
2023/08/07 08:07:25;;;;;;;14.57;3.05;;;13.60;99.90;;;;;;5062871;28;20055;-61
2023/08/07 08:09:50;;;;;;;16.15;5.07;;;13.70;99.90;;;;;;5082232;28;20060;-61
2023/08/07 08:12:16;;;;;;;14.63;4.25;;;13.70;99.90;;;;;;5079831;28;20044;-61
2023/08/07 08:14:42;;;;;;;15.52;3.85;;;13.70;99.90;;;;;;5047484;28;20053;-61
2023/08/07 08:17:08;;;;;;;15.73;3.92;;;13.90;99.90;;;;;;5079795;28;20033;-61
2023/08/07 08:19:33;;;;;;;18.20;3.83;;;14.10;99.90;;;;;;5081865;28;20048;-61
2023/08/07 08:21:59;;;;;;;14.70;3.95;;;14.30;99.90;;;;;;5080317;28;20052;-61
2023/08/07 08:24:25;;;;;;;15.25;3.85;;;14.60;99.90;;;;;;5080901;28;20059;-61
2023/08/07 08:26:50;;;;;;;15.13;4.18;;;14.90;99.90;;;;;;5081700;28;20040;-60
2023/08/07 08:29:16;;;;;;;10.40;2.92;;;15.40;99.90;;;;;;5079471;28;20033;-61
2023/08/07 08:31:42;;;;;;;14.68;2.70;;;15.30;99.90;;;;;;5082026;28;20075;-62
2023/08/07 08:34:08;;;;;;;13.00;2.60;;;15.50;99.90;;;;;;5079677;28;20056;-61
2023/08/07 08:36:33;;;;;;;9.55;2.60;;;15.60;99.90;;;;;;5081519;28;20055;-61
2023/08/07 08:38:59;;;;;;;14.07;2.50;;;15.70;99.90;;;;;;5080157;28;20045;-61
2023/08/07 08:41:25;;;;;;;11.82;2.80;;;15.80;99.90;;;;;;5062670;28;20043;-61
2023/08/07 08:43:55;;;;;;;11.27;2.75;;;15.90;99.90;;;;;;5080970;28;20063;-60
2023/08/07 08:46:23;;;;;;;9.73;2.20;;;15.90;97.60;;;;;;5079440;28;20079;-61
2023/08/07 08:48:51;;;;;;;10.20;2.65;;;16.00;99.90;;;;;;5063678;28;20083;-61
2023/08/07 08:51:18;;;;;;;9.48;2.50;;;16.10;99.80;;;;;;5078880;28;20056;-60
2023/08/07 08:53:46;;;;;;;11.55;2.92;;;16.00;98.00;;;;;;5081383;28;20362;-61
2023/08/07 08:56:12;;;;;;;12.07;2.55;;;16.10;99.90;;;;;;5085103;28;20074;-60
2023/08/07 08:58:38;;;;;;;11.52;2.63;;;16.20;99.30;;;;;;5101145;28;20028;-61
2023/08/07 09:01:06;;;;;;;11.40;2.50;;;16.20;96.00;;;;;;5101020;28;20051;-61
2023/08/07 09:03:32;;;;;;;9.13;2.53;;;15.90;97.60;;;;;;5099676;28;20043;-61
2023/08/07 09:06:01;;;;;;;10.57;3.13;;;15.90;96.30;;;;;;5101636;28;20066;-61
2023/08/07 09:08:29;;;;;;;7.78;2.10;;;16.10;98.90;;;;;;5099367;28;20047;-61
2023/08/07 09:10:55;;;;;;;8.90;1.90;;;16.30;98.40;;;;;;5082794;28;20062;-61
2023/08/07 09:13:23;;;;;;;7.10;2.22;;;16.40;93.90;;;;;;5099885;28;20047;-61
2023/08/07 09:15:50;;;;;;;16.30;2.47;;;16.50;92.90;;;;;;5099127;28;20051;-61
2023/08/07 09:18:19;;;;;;;11.48;2.42;;;16.40;92.10;;;;;;5101006;28;20098;-61
2023/08/07 09:20:44;;;;;;;10.25;2.05;;;16.60;98.00;;;;;;5099416;28;20044;-61
2023/08/07 09:23:11;;;;;;;8.70;2.47;;;16.50;82.10;;;;;;5101076;28;20093;-61
2023/08/07 09:25:37;;;;;;;9.25;2.28;;;16.60;90.20;;;;;;5098866;28;20091;-60
2023/08/07 09:28:06;;;;;;;9.95;2.38;;;16.50;90.60;;;;;;5100903;28;20068;-61
2023/08/07 09:30:35;;;;;;;11.10;2.33;;;16.20;91.10;;;;;;5099464;28;20059;-61
2023/08/07 09:33:01;;;;;;;13.65;2.40;;;16.00;92.50;;;;;;5099971;28;20043;-61
2023/08/07 09:35:29;;;;;;;9.35;2.63;;;16.20;92.80;;;;;;5100524;28;20052;-61
2023/08/07 09:37:56;;;;;;;10.85;2.10;;;16.40;95.00;;;;;;5080440;28;20048;-60
2023/08/07 09:40:22;;;;;;;10.30;2.55;;;16.80;92.90;;;;;;5082669;28;20044;-61
2023/08/07 09:42:54;;;;;;;11.32;2.22;;;16.50;82.70;;;;;;5098465;28;20092;-61
2023/08/07 09:45:21;;;;;;;11.63;2.40;;;16.40;90.90;;;;;;5100465;28;20065;-60
2023/08/07 09:47:56;;;;;;;11.05;2.10;;;16.10;91.50;;;;;;5099342;28;20074;-60
2023/08/07 09:50:22;;;;;;;11.73;2.28;;;16.00;85.60;;;;;;5099019;28;20052;-60
2023/08/07 09:52:51;;;;;;;11.32;2.45;;;16.00;93.30;;;;;;5100536;28;20105;-60
2023/08/07 09:55:16;;;;;;;8.25;2.03;;;15.80;89.50;;;;;;5098245;28;20059;-60
2023/08/07 09:57:43;;;;;;;12.63;2.45;;;15.80;91.80;;;;;;5081894;28;20044;-61
2023/08/07 10:00:16;;;;;;;9.50;2.10;;;15.80;94.50;;;;;;5078429;28;20044;-61
2023/08/07 10:02:48;;;;;;;11.15;2.53;;;15.80;93.60;;;;;;5079275;28;20045;-60
2023/08/07 10:05:14;;;;;;;9.38;2.90;;;15.90;94.50;;;;;;5079538;28;20127;-60
2023/08/07 10:07:41;;;;;;;13.52;2.55;;;16.00;94.70;;;;;;5078307;28;20096;-60
2023/08/07 10:10:08;;;;;;;15.68;2.70;;;16.00;95.60;;;;;;5061852;28;20075;-60
2023/08/07 10:12:34;;;;;;;11.88;2.88;;;15.90;92.10;;;;;;5077945;28;20041;-60
2023/08/07 10:15:00;;;;;;;8.27;2.25;;;16.20;90.00;;;;;;5079613;28;20123;-61
2023/08/07 10:17:27;;;;;;;9.90;2.63;;;16.10;89.30;;;;;;5077976;28;20068;-62
2023/08/07 10:19:52;;;;;;;11.98;2.60;;;16.30;93.50;;;;;;5078796;28;20043;-61
2023/08/07 10:22:24;;;;;;;10.65;2.22;;;16.20;95.80;;;;;;5079019;28;20060;-59
2023/08/07 10:24:52;;;;;;;13.88;3.92;;;15.90;94.10;;;;;;5077895;28;20044;-60
2023/08/07 10:27:20;;;;;;;13.35;2.25;;;15.90;95.80;;;;;;5060841;28;20071;-60
2023/08/07 10:29:48;;;;;;;11.23;2.45;;;16.40;95.40;;;;;;5077500;28;20044;-60
2023/08/07 10:32:17;;;;;;;12.70;2.60;;;16.50;92.20;;;;;;5079295;28;20119;-61
2023/08/07 10:34:49;;;;;;;13.07;2.20;;;16.50;91.40;;;;;;5060107;28;20062;-60
2023/08/07 10:37:42;;;;;;;8.90;2.28;;;16.40;74.80;;;;;;5060173;28;20044;-60
2023/08/07 10:40:12;;;;;;;7.97;2.08;;;16.00;73.00;;;;;;5079548;28;20048;-62
2023/08/07 10:42:54;;;;;;;6.13;1.58;;;16.20;61.10;;;;;;5077072;28;20056;-60
2023/08/07 10:45:22;;;;;;;6.60;1.60;;;16.60;64.20;;;;;;5078774;28;20076;-61
2023/08/07 10:47:58;;;;;;;7.20;1.88;;;16.90;72.10;;;;;;5077996;28;20044;-60
2023/08/07 10:50:34;;;;;;;7.28;1.58;;;16.80;66.40;;;;;;5077096;28;20082;-60
2023/08/07 10:53:01;;;;;;;9.75;2.15;;;17.00;66.40;;;;;;5078801;28;20091;-60
2023/08/07 10:55:31;;;;;;;11.02;2.05;;;16.70;64.60;;;;;;5077228;28;20044;-60
2023/08/07 10:57:57;;;;;;;10.30;1.85;;;16.50;74.80;;;;;;5078878;28;20125;-61
2023/08/07 11:00:27;;;;;;;13.70;1.83;;;16.40;77.90;;;;;;5059486;28;20404;-61
2023/08/07 11:02:54;;;;;;;9.73;1.98;;;16.30;80.40;;;;;;5078028;28;20387;-61
2023/08/07 11:05:20;;;;;;;11.68;2.70;;;16.50;84.30;;;;;;5078830;28;20051;-60
2023/08/07 11:07:46;;;;;;;8.77;1.70;;;16.70;85.70;;;;;;5077072;28;20040;-60
2023/08/07 11:10:16;;;;;;;10.15;1.83;;;16.60;88.80;;;;;;5079058;28;20063;-60
2023/08/07 11:12:43;;;;;;;10.02;2.00;;;16.50;91.60;;;;;;5077042;28;20391;-60
2023/08/07 11:15:13;;;;;;;10.50;2.28;;;16.30;92.10;;;;;;5078421;28;20134;-60
2023/08/07 11:17:39;;;;;;;10.73;2.60;;;16.20;94.80;;;;;;5077749;28;20147;-60
2023/08/07 11:20:06;;;;;;;7.45;1.98;;;16.20;92.80;;;;;;5077357;28;20059;-60
2023/08/07 11:22:32;;;;;;;9.73;1.90;;;16.00;92.50;;;;;;5078783;28;20088;-60
2023/08/07 11:24:57;;;;;;;10.68;2.42;;;15.80;97.20;;;;;;5076515;28;20036;-60
2023/08/07 11:27:23;;;;;;;10.15;2.72;;;15.60;99.90;;;;;;5078867;28;20040;-60
2023/08/07 11:29:49;;;;;;;9.73;1.90;;;15.20;99.90;;;;;;5076100;28;20049;-60
2023/08/07 11:32:15;;;;;;;6.47;1.70;;;15.00;99.90;;;;;;5078212;28;20074;-60
2023/08/07 11:34:40;;;;;;;9.18;2.00;;;14.50;99.90;;;;;;5077010;28;20044;-60
2023/08/07 11:37:06;;;;;;;6.85;2.00;;;14.50;99.90;;;;;;5077819;28;20048;-59
2023/08/07 11:39:32;;;;;;;6.70;1.73;;;14.50;99.90;;;;;;5077685;28;20036;-59
2023/08/07 11:41:57;;;;;;;5.53;1.35;;;14.00;99.90;;;;;;5076732;28;20040;-59
2023/08/07 11:44:23;;;;;;;9.30;1.88;;;14.10;99.90;;;;;;5078691;28;20058;-60
2023/08/07 11:46:51;;;;;;;7.40;1.77;;;14.20;99.90;;;;;;5076447;28;20045;-59
2023/08/07 11:49:17;;;;;;;7.32;2.15;;;14.30;99.90;;;;;;5078108;28;20121;-59
2023/08/07 11:51:43;;;;;;;9.38;2.83;;;14.40;99.90;;;;;;5076703;28;20044;-59
2023/08/07 11:54:15;;;;;;;10.82;2.20;;;14.50;99.90;;;;;;5077509;28;20104;-60
2023/08/07 11:56:42;;;;;;;;;;;14.80;99.90;;;;;;5088422;28;20137;-59
2023/08/07 11:59:08;;;;;;;7.13;1.63;;;14.60;99.90;;;;;;5096559;28;19931;-60
2023/08/07 12:01:38;;;;;;;7.57;2.00;;;14.20;99.90;;;;;;5098738;28;20044;-60
2023/08/07 12:04:07;;;;;;;6.40;1.73;;;14.20;99.90;;;;;;5096124;28;20052;-59
2023/08/07 12:06:35;;;;;;;9.52;1.85;;;14.30;99.90;;;;;;5098570;28;20123;-60
2023/08/07 12:09:02;;;;;;;5.75;1.52;;;14.30;99.90;;;;;;5097079;28;20080;-59
2023/08/07 12:11:30;;;;;;;7.47;1.88;;;14.50;99.90;;;;;;5097462;28;20052;-59
2023/08/07 12:13:55;;;;;;;12.23;2.70;;;14.50;99.90;;;;;;5098384;28;20051;-60
2023/08/07 12:16:21;;;;;;;11.15;2.33;;;14.60;99.90;;;;;;5096340;28;20044;-60
2023/08/07 12:18:49;;;;;;;11.13;2.88;;;14.80;99.90;;;;;;5098203;28;20077;-60
2023/08/07 12:21:17;;;;;;;11.43;2.92;;;14.80;99.90;;;;;;5096156;28;20051;-59
2023/08/07 12:23:44;;;;;;;15.02;3.38;;;14.90;99.90;;;;;;5097975;28;20044;-60
2023/08/07 12:26:09;;;;;;;14.63;3.85;;;15.30;99.90;;;;;;5096816;28;20036;-59
2023/08/07 12:28:36;;;;;;;14.80;3.65;;;15.60;99.90;;;;;;5097325;28;20066;-59
2023/08/07 12:31:02;;;;;;;12.88;2.92;;;15.90;99.90;;;;;;5098349;28;20072;-60
2023/08/07 12:33:31;;;;;;;10.23;2.40;;;16.00;99.90;;;;;;5078106;28;20040;-60
2023/08/07 12:35:58;;;;;;;9.63;2.38;;;16.10;99.90;;;;;;5098385;28;20044;-60
2023/08/07 12:38:24;;;;;;;8.40;2.85;;;16.40;99.90;;;;;;5095900;28;20051;-59